createdAt,value
2022-10-31T00:00:51.134Z,8.73
2022-10-31T00:03:20.199Z,9.00
2022-10-31T00:05:50.032Z,8.93
2022-10-31T00:08:19.079Z,9.33
2022-10-31T00:10:47.975Z,9.33
2022-10-31T00:13:16.829Z,8.50
2022-10-31T00:15:46.444Z,9.27
2022-10-31T00:18:14.594Z,9.97
2022-10-31T00:20:42.978Z,10.27
2022-10-31T00:23:12.644Z,9.97
2022-10-31T00:25:41.755Z,9.27
2022-10-31T00:28:13.137Z,9.63
2022-10-31T00:30:41.572Z,9.53
2022-10-31T00:33:11.174Z,9.60
2022-10-31T00:35:39.288Z,10.00
2022-10-31T00:38:07.472Z,9.73
2022-10-31T00:40:35.836Z,9.67
2022-10-31T00:43:04.847Z,9.70
2022-10-31T00:45:33.251Z,9.97
2022-10-31T00:48:01.612Z,9.93
2022-10-31T00:50:31.324Z,10.20
2022-10-31T00:53:00.076Z,10.17
2022-10-31T00:55:28.441Z,10.17
2022-10-31T00:57:56.846Z,10.80
2022-10-31T01:00:25.209Z,10.30
2022-10-31T01:02:53.704Z,10.43
2022-10-31T01:05:22.128Z,11.00
2022-10-31T01:07:51.547Z,11.07
2022-10-31T01:10:19.953Z,11.17
2022-10-31T01:12:50.287Z,11.40
2022-10-31T01:15:21.246Z,11.50
2022-10-31T01:17:50.071Z,11.23
2022-10-31T01:20:18.993Z,11.93
2022-10-31T01:22:47.867Z,12.40
2022-10-31T01:25:17.274Z,13.23
2022-10-31T01:27:45.512Z,12.50
2022-10-31T01:30:14.333Z,12.13
2022-10-31T01:32:43.024Z,12.30
2022-10-31T01:35:11.473Z,12.90
2022-10-31T01:37:39.723Z,12.67
2022-10-31T01:40:08.913Z,13.57
2022-10-31T01:42:38.534Z,13.23
2022-10-31T01:45:07.963Z,13.37
2022-10-31T01:47:42.239Z,13.63
2022-10-31T01:50:28.428Z,14.53
2022-10-31T01:52:57.275Z,14.77
2022-10-31T01:55:30.345Z,14.40
2022-10-31T01:58:06.049Z,14.67
2022-10-31T02:00:34.337Z,14.23
2022-10-31T02:03:03.432Z,14.47
2022-10-31T02:05:34.623Z,13.87
2022-10-31T02:08:06.627Z,13.33
2022-10-31T02:10:36.221Z,14.27
2022-10-31T02:13:07.858Z,14.90
2022-10-31T02:15:38.386Z,14.40
2022-10-31T02:18:08.790Z,14.43
2022-10-31T02:20:47.384Z,13.70
2022-10-31T02:23:47.827Z,13.33
2022-10-31T02:26:57.164Z,14.13
2022-10-31T02:29:57.761Z,13.60
2022-10-31T02:32:32.675Z,13.80
2022-10-31T02:35:08.191Z,13.57
2022-10-31T02:37:45.216Z,13.63
2022-10-31T02:40:19.718Z,13.37
2022-10-31T02:42:54.174Z,13.30
2022-10-31T02:45:28.482Z,13.17
2022-10-31T02:48:02.730Z,13.13
2022-10-31T02:50:33.970Z,13.20
2022-10-31T02:53:04.070Z,13.17
2022-10-31T02:55:50.970Z,14.37
2022-10-31T02:58:23.852Z,13.67
2022-10-31T03:01:10.047Z,14.17
2022-10-31T03:03:51.158Z,14.13
2022-10-31T03:06:27.094Z,14.40
2022-10-31T03:09:03.007Z,14.87
2022-10-31T03:11:38.459Z,14.43
2022-10-31T03:14:12.439Z,14.13
2022-10-31T03:16:47.358Z,14.60
2022-10-31T03:19:20.601Z,14.20
2022-10-31T03:21:51.700Z,14.73
2022-10-31T03:24:22.301Z,13.50
2022-10-31T03:26:53.818Z,14.37
2022-10-31T03:29:24.620Z,14.37
2022-10-31T03:31:58.053Z,15.03
2022-10-31T03:34:28.813Z,16.40
2022-10-31T03:37:01.278Z,15.67
2022-10-31T03:39:30.493Z,16.07
2022-10-31T03:42:06.577Z,15.73
2022-10-31T03:44:36.856Z,16.43
2022-10-31T03:47:05.947Z,16.37
2022-10-31T03:49:36.950Z,16.53
2022-10-31T03:52:12.198Z,16.27
2022-10-31T03:54:45.447Z,15.87
2022-10-31T03:57:21.120Z,16.60
2022-10-31T03:59:53.772Z,16.77
2022-10-31T04:02:24.124Z,16.40
2022-10-31T04:04:54.440Z,16.40
2022-10-31T04:07:26.547Z,17.83
2022-10-31T04:09:57.676Z,18.20
2022-10-31T04:12:27.379Z,18.00
2022-10-31T04:14:58.266Z,17.67
2022-10-31T04:17:29.323Z,20.17
2022-10-31T04:20:01.641Z,19.30
2022-10-31T04:22:29.924Z,19.70
2022-10-31T04:24:58.145Z,19.50
2022-10-31T04:27:26.348Z,20.13
2022-10-31T04:29:54.527Z,19.73
2022-10-31T04:32:22.743Z,21.17
2022-10-31T04:34:51.132Z,21.33
2022-10-31T04:37:20.847Z,22.17
2022-10-31T04:39:49.079Z,21.23
2022-10-31T04:42:17.319Z,23.80
2022-10-31T04:44:49.208Z,21.70
2022-10-31T04:47:17.631Z,21.63
2022-10-31T04:49:47.619Z,22.03
2022-10-31T04:52:15.923Z,21.67
2022-10-31T04:54:45.717Z,20.03
2022-10-31T04:57:13.973Z,20.83
2022-10-31T04:59:42.110Z,20.50
2022-10-31T05:02:13.683Z,21.53
2022-10-31T05:04:44.585Z,22.07
2022-10-31T05:07:12.793Z,22.07
2022-10-31T05:09:40.905Z,22.63
2022-10-31T05:12:10.335Z,23.20
2022-10-31T05:14:38.502Z,22.43
2022-10-31T05:17:07.004Z,23.90
2022-10-31T05:19:35.346Z,23.03
2022-10-31T05:22:03.590Z,22.90
2022-10-31T05:24:32.235Z,23.90
2022-10-31T05:27:00.411Z,24.73
2022-10-31T05:29:34.255Z,25.23
2022-10-31T05:32:02.574Z,25.07
2022-10-31T05:34:31.119Z,24.87
2022-10-31T05:36:59.251Z,24.73
2022-10-31T05:39:27.404Z,26.20
2022-10-31T05:41:55.567Z,24.40
2022-10-31T05:44:23.868Z,24.80
2022-10-31T05:46:53.527Z,24.67
2022-10-31T05:49:21.929Z,26.40
2022-10-31T05:51:50.171Z,24.97
2022-10-31T05:54:18.490Z,25.53
2022-10-31T05:56:46.848Z,25.17
2022-10-31T05:59:15.058Z,24.47
2022-10-31T06:01:43.268Z,25.23
2022-10-31T06:04:15.650Z,26.37
2022-10-31T06:06:43.972Z,26.50
2022-10-31T06:09:12.213Z,26.63
2022-10-31T06:11:40.546Z,26.53
2022-10-31T06:14:09.211Z,26.03
2022-10-31T06:16:37.518Z,27.10
2022-10-31T06:19:05.939Z,27.57
2022-10-31T06:21:35.456Z,27.43
2022-10-31T06:24:03.749Z,28.90
2022-10-31T06:26:31.981Z,28.33
2022-10-31T06:29:03.970Z,28.60
2022-10-31T06:31:32.534Z,29.57
2022-10-31T06:34:00.913Z,28.73
2022-10-31T06:36:29.358Z,29.23
2022-10-31T06:38:58.958Z,28.30
2022-10-31T06:41:27.146Z,29.30
2022-10-31T06:43:55.842Z,29.03
2022-10-31T06:46:24.070Z,28.73
2022-10-31T06:48:52.366Z,29.80
2022-10-31T06:51:20.799Z,28.90
2022-10-31T06:53:49.593Z,29.40
2022-10-31T06:56:19.271Z,29.27
2022-10-31T06:58:47.484Z,29.57
2022-10-31T07:01:15.922Z,31.00
2022-10-31T07:03:44.185Z,31.57
2022-10-31T07:06:12.541Z,33.43
2022-10-31T07:08:40.891Z,33.57
2022-10-31T07:11:09.211Z,33.30
2022-10-31T07:13:38.693Z,33.13
2022-10-31T07:16:08.579Z,32.37
2022-10-31T07:18:40.486Z,34.17
2022-10-31T07:21:08.883Z,34.30
2022-10-31T07:23:37.445Z,33.97
2022-10-31T07:26:05.863Z,34.63
2022-10-31T07:28:34.115Z,32.87
2022-10-31T07:31:03.657Z,36.40
2022-10-31T07:33:31.931Z,35.93
2022-10-31T07:36:00.301Z,37.00
2022-10-31T07:38:28.404Z,37.63
2022-10-31T07:40:56.766Z,38.43
2022-10-31T07:43:25.273Z,39.30
2022-10-31T07:45:54.816Z,39.80
2022-10-31T07:48:24.614Z,40.13
2022-10-31T07:50:53.003Z,40.10
2022-10-31T07:53:21.446Z,37.73
2022-10-31T07:55:49.730Z,40.67
2022-10-31T07:58:19.190Z,43.67
2022-10-31T08:00:48.958Z,47.10
2022-10-31T08:03:18.804Z,49.43
2022-10-31T08:05:48.323Z,51.00
2022-10-31T08:08:17.662Z,48.97
2022-10-31T08:10:45.961Z,44.97
2022-10-31T08:13:15.954Z,45.67
2022-10-31T08:15:44.140Z,45.53
2022-10-31T08:18:14.947Z,46.53
2022-10-31T08:20:44.090Z,45.20
2022-10-31T08:23:14.442Z,42.43
2022-10-31T08:25:42.884Z,40.43
2022-10-31T08:28:12.666Z,40.17
2022-10-31T08:30:41.700Z,38.33
2022-10-31T08:33:12.907Z,37.40
2022-10-31T08:35:41.386Z,38.37
2022-10-31T08:38:11.264Z,39.73
2022-10-31T08:40:41.077Z,36.90
2022-10-31T08:43:12.927Z,37.87
2022-10-31T08:45:41.526Z,38.20
2022-10-31T08:48:12.302Z,39.80
2022-10-31T08:50:41.220Z,39.83
2022-10-31T08:53:12.767Z,40.23
2022-10-31T08:55:42.976Z,40.23
2022-10-31T08:58:16.780Z,40.23
2022-10-31T09:00:45.697Z,40.43
2022-10-31T09:03:15.515Z,38.80
2022-10-31T09:05:44.221Z,40.27
2022-10-31T09:08:16.404Z,39.37
2022-10-31T09:10:46.476Z,30.40
2022-10-31T09:13:16.581Z,31.30
2022-10-31T09:15:47.108Z,26.57
2022-10-31T09:18:16.450Z,24.90
2022-10-31T09:20:45.970Z,27.03
2022-10-31T09:23:16.274Z,29.93
2022-10-31T09:25:50.222Z,32.30
2022-10-31T09:28:21.205Z,32.70
2022-10-31T09:30:50.077Z,31.67
2022-10-31T09:33:19.701Z,27.87
2022-10-31T09:35:48.056Z,29.40
2022-10-31T09:38:17.572Z,27.73
2022-10-31T09:40:49.433Z,32.23
2022-10-31T09:43:23.818Z,31.80
2022-10-31T09:46:02.871Z,31.40
2022-10-31T09:48:44.034Z,31.40
2022-10-31T09:51:16.318Z,32.70
2022-10-31T09:53:48.564Z,33.77
2022-10-31T09:56:21.703Z,33.80
2022-10-31T09:58:54.816Z,31.63
2022-10-31T10:01:32.832Z,30.60
2022-10-31T10:04:07.677Z,30.40
2022-10-31T10:06:41.104Z,28.57
2022-10-31T10:09:10.042Z,25.53
2022-10-31T10:11:51.623Z,24.43
2022-10-31T10:14:43.765Z,23.70
2022-10-31T10:17:27.517Z,21.50
2022-10-31T10:20:20.672Z,18.67
2022-10-31T10:22:57.798Z,20.20
2022-10-31T10:25:35.382Z,19.37
2022-10-31T10:28:18.793Z,17.37
2022-10-31T10:30:50.845Z,17.00
2022-10-31T10:33:21.984Z,15.83
2022-10-31T10:35:53.071Z,16.10
2022-10-31T10:38:28.547Z,16.30
2022-10-31T10:40:57.389Z,14.63
2022-10-31T10:43:38.270Z,16.73
2022-10-31T10:46:40.832Z,16.20
2022-10-31T10:49:17.902Z,16.00
2022-10-31T10:54:47.941Z,15.13
2022-10-31T10:57:30.276Z,14.53
2022-10-31T11:00:01.390Z,14.87
2022-10-31T11:02:34.552Z,13.97
2022-10-31T11:05:04.148Z,13.53
2022-10-31T11:07:41.215Z,13.93
2022-10-31T11:10:16.025Z,14.23
2022-10-31T11:12:45.930Z,13.93
2022-10-31T11:15:23.332Z,14.10
2022-10-31T11:17:53.800Z,12.30
2022-10-31T11:20:35.691Z,13.03
2022-10-31T11:23:18.213Z,13.48
2022-10-31T11:25:55.036Z,11.87
2022-10-31T11:28:23.527Z,12.13
2022-10-31T11:30:55.049Z,12.30
2022-10-31T11:33:30.219Z,11.98
2022-10-31T11:35:59.397Z,12.35
2022-10-31T11:38:34.794Z,13.23
2022-10-31T11:41:11.525Z,11.98
2022-10-31T11:43:40.808Z,11.95
2022-10-31T11:46:17.229Z,11.68
2022-10-31T11:48:50.422Z,11.10
2022-10-31T11:51:24.040Z,10.32
2022-10-31T11:53:57.037Z,11.45
2022-10-31T11:56:29.055Z,10.70
2022-10-31T11:58:58.155Z,10.10
2022-10-31T12:01:29.836Z,9.32
2022-10-31T12:04:08.099Z,8.15
2022-10-31T12:06:38.168Z,7.13
2022-10-31T12:09:18.382Z,7.43
2022-10-31T12:12:06.259Z,6.80
2022-10-31T12:14:41.730Z,6.38
2022-10-31T12:17:18.235Z,6.55
2022-10-31T12:20:00.319Z,6.80
2022-10-31T12:22:44.694Z,6.88
2022-10-31T12:25:28.672Z,6.65
2022-10-31T12:28:16.766Z,6.47
2022-10-31T12:30:56.937Z,6.65
2022-10-31T12:33:41.566Z,6.80
2022-10-31T12:36:31.570Z,6.47
2022-10-31T12:39:15.233Z,7.05
2022-10-31T12:41:49.591Z,7.97
2022-10-31T12:44:47.061Z,8.40
2022-10-31T12:47:33.947Z,7.50
2022-10-31T12:50:15.229Z,6.68
2022-10-31T12:52:58.612Z,8.00
2022-10-31T12:55:43.598Z,7.88
2022-10-31T12:58:16.424Z,7.95
2022-10-31T13:00:48.480Z,8.02
2022-10-31T13:03:27.253Z,7.10
2022-10-31T13:06:00.195Z,7.07
2022-10-31T13:08:31.742Z,7.68
2022-10-31T13:11:08.667Z,7.63
2022-10-31T13:13:42.167Z,7.72
2022-10-31T13:16:15.384Z,7.03
2022-10-31T13:18:47.652Z,8.15
2022-10-31T13:21:22.400Z,8.20
2022-10-31T13:23:53.038Z,8.02
2022-10-31T13:26:33.581Z,8.43
2022-10-31T13:29:11.157Z,8.25
2022-10-31T13:31:42.587Z,8.88
2022-10-31T13:34:27.777Z,9.30
2022-10-31T13:37:05.448Z,9.77
2022-10-31T13:39:53.427Z,9.40
2022-10-31T13:42:30.734Z,9.20
2022-10-31T13:45:13.248Z,9.35
2022-10-31T13:47:43.243Z,9.80
2022-10-31T13:50:22.732Z,9.50
2022-10-31T13:52:52.249Z,9.00
2022-10-31T13:55:40.713Z,9.60
2022-10-31T13:58:24.405Z,9.68
2022-10-31T14:01:17.666Z,10.48
2022-10-31T14:04:04.996Z,10.05
2022-10-31T14:06:40.885Z,10.63
2022-10-31T14:09:30.336Z,11.38
2022-10-31T14:12:01.486Z,10.98
2022-10-31T14:14:36.604Z,11.38
2022-10-31T14:17:05.143Z,10.63
2022-10-31T14:19:33.519Z,10.95
2022-10-31T14:22:01.825Z,10.23
2022-10-31T14:24:36.812Z,10.45
2022-10-31T14:27:27.087Z,11.20
2022-10-31T14:29:55.480Z,11.70
2022-10-31T14:32:26.280Z,12.02
2022-10-31T14:34:56.842Z,12.30
2022-10-31T14:37:40.793Z,11.98
2022-10-31T14:40:32.555Z,13.05
2022-10-31T14:43:20.367Z,13.15
2022-10-31T14:45:56.324Z,12.82
2022-10-31T14:48:45.218Z,12.80
2022-10-31T14:51:16.063Z,12.20
2022-10-31T14:53:49.152Z,12.70
2022-10-31T14:56:23.498Z,12.20
2022-10-31T14:58:52.088Z,13.25
2022-10-31T15:01:27.617Z,12.45
2022-10-31T15:06:51.160Z,13.30
2022-10-31T15:09:27.329Z,14.63
2022-10-31T15:11:56.708Z,14.73
2022-10-31T15:14:27.231Z,15.05
2022-10-31T15:16:56.205Z,15.30
2022-10-31T15:19:26.636Z,14.77
2022-10-31T15:21:56.650Z,15.43
2022-10-31T15:24:29.050Z,15.02
2022-10-31T15:27:03.802Z,14.98
2022-10-31T15:29:33.521Z,14.95
2022-10-31T15:32:03.756Z,15.02
2022-10-31T15:34:40.112Z,14.82
2022-10-31T15:37:13.057Z,15.40
2022-10-31T15:39:41.617Z,15.07
2022-10-31T15:42:22.127Z,14.68
2022-10-31T15:44:54.518Z,15.90
2022-10-31T15:47:25.345Z,16.38
2022-10-31T15:49:55.178Z,16.13
2022-10-31T15:52:34.798Z,16.27
2022-10-31T15:55:05.614Z,15.27
2022-10-31T15:57:35.622Z,17.08
2022-10-31T16:00:04.179Z,17.10
2022-10-31T16:02:32.545Z,17.58
2022-10-31T16:05:03.019Z,17.67
2022-10-31T16:07:32.390Z,16.55
2022-10-31T16:10:01.689Z,17.50
2022-10-31T16:12:38.219Z,18.08
2022-10-31T16:15:08.785Z,18.25
2022-10-31T16:17:37.228Z,18.48
2022-10-31T16:20:07.829Z,18.55
2022-10-31T16:22:37.969Z,18.48
2022-10-31T16:25:10.671Z,19.00
2022-10-31T16:27:41.077Z,19.58
2022-10-31T16:30:30.527Z,21.27
2022-10-31T16:33:00.774Z,21.48
2022-10-31T16:35:33.757Z,20.38
2022-10-31T16:38:03.533Z,20.85
2022-10-31T16:40:32.757Z,20.33
2022-10-31T16:43:03.764Z,21.20
2022-10-31T16:45:34.048Z,21.88
2022-10-31T16:48:06.338Z,24.10
2022-10-31T16:50:34.769Z,23.35
2022-10-31T16:53:18.220Z,23.15
2022-10-31T16:55:48.461Z,23.92
2022-10-31T16:58:21.161Z,23.88
2022-10-31T17:00:49.976Z,23.65
2022-10-31T17:03:18.205Z,22.77
2022-10-31T17:05:46.863Z,23.98
2022-10-31T17:08:15.070Z,23.13
2022-10-31T17:10:44.738Z,28.30
2022-10-31T17:13:17.880Z,28.63
2022-10-31T17:15:51.357Z,27.85
2022-10-31T17:18:24.273Z,27.00
2022-10-31T17:20:59.119Z,27.30
2022-10-31T17:23:27.947Z,26.95
2022-10-31T17:25:56.235Z,27.77
2022-10-31T17:28:25.080Z,27.38
2022-10-31T17:30:55.844Z,26.00
2022-10-31T17:33:24.480Z,25.88
2022-10-31T17:35:52.911Z,27.45
2022-10-31T17:38:21.236Z,25.58
2022-10-31T17:40:49.542Z,26.20
2022-10-31T17:43:17.964Z,27.33
2022-10-31T17:45:46.205Z,27.23
2022-10-31T17:48:15.931Z,26.98
2022-10-31T17:50:44.156Z,28.67
2022-10-31T17:53:12.469Z,28.50
2022-10-31T17:55:40.744Z,27.45
2022-10-31T17:58:12.178Z,26.38
2022-10-31T18:00:41.857Z,26.13
2022-10-31T18:03:11.322Z,27.23
2022-10-31T18:05:40.940Z,26.63
2022-10-31T18:08:09.210Z,30.00
2022-10-31T18:10:39.934Z,26.83
2022-10-31T18:13:08.403Z,23.52
2022-10-31T18:15:40.817Z,21.75
2022-10-31T18:18:09.201Z,22.92
2022-10-31T18:20:37.512Z,23.33
2022-10-31T18:23:06.910Z,24.52
2022-10-31T18:25:35.178Z,21.92
2022-10-31T18:28:03.903Z,24.73
2022-10-31T18:30:32.227Z,21.52
2022-10-31T18:33:00.601Z,19.83
2022-10-31T18:35:28.903Z,18.45
2022-10-31T18:37:59.326Z,18.27
2022-10-31T18:40:32.485Z,15.55
2022-10-31T18:43:01.312Z,14.10
2022-10-31T18:45:41.563Z,17.48
2022-10-31T18:48:15.574Z,14.18
2022-10-31T18:50:44.488Z,12.65
2022-10-31T18:53:13.191Z,11.32
2022-10-31T18:55:47.214Z,12.32
2022-10-31T18:58:17.512Z,11.68
2022-10-31T19:00:46.059Z,12.73
2022-10-31T19:03:14.669Z,9.93
2022-10-31T19:05:42.953Z,12.25
2022-10-31T19:08:11.669Z,11.50
2022-10-31T19:10:41.129Z,10.65
2022-10-31T19:13:10.960Z,10.07
2022-10-31T19:15:39.601Z,9.85
2022-10-31T19:18:08.028Z,11.15
2022-10-31T19:20:38.649Z,10.48
2022-10-31T19:23:07.247Z,9.95
2022-10-31T19:25:35.643Z,9.77
2022-10-31T19:28:04.586Z,9.48
2022-10-31T19:30:34.347Z,9.52
2022-10-31T19:33:02.773Z,9.38
2022-10-31T19:35:31.459Z,8.95
2022-10-31T19:38:00.210Z,10.05
2022-10-31T19:40:28.783Z,9.57
2022-10-31T19:42:57.061Z,10.15
2022-10-31T19:45:25.327Z,9.32
2022-10-31T19:47:54.837Z,8.07
2022-10-31T19:50:22.985Z,9.27
2022-10-31T19:52:51.305Z,8.90
2022-10-31T19:55:19.597Z,9.02
2022-10-31T19:58:01.384Z,8.65
2022-10-31T20:00:30.442Z,8.82
2022-10-31T20:03:01.219Z,8.80
2022-10-31T20:05:29.773Z,8.38
2022-10-31T20:07:58.169Z,7.18
2022-10-31T20:10:26.540Z,7.88
2022-10-31T20:12:54.966Z,8.60
2022-10-31T20:15:23.149Z,7.47
2022-10-31T20:17:51.583Z,7.55
2022-10-31T20:20:21.373Z,7.22
2022-10-31T20:22:50.716Z,8.10
2022-10-31T20:25:19.315Z,8.20
2022-10-31T20:27:47.540Z,8.95
2022-10-31T20:30:16.173Z,7.65
2022-10-31T20:32:49.820Z,8.35
2022-10-31T20:35:18.410Z,8.48
2022-10-31T20:37:47.924Z,8.02
2022-10-31T20:40:16.355Z,7.78
2022-10-31T20:42:44.890Z,7.57
2022-10-31T20:45:13.146Z,7.75
2022-10-31T20:47:41.589Z,7.82
2022-10-31T20:50:10.362Z,7.00
2022-10-31T20:52:40.510Z,7.18
2022-10-31T20:55:10.858Z,7.03
2022-10-31T20:57:39.288Z,7.70
2022-10-31T21:00:09.113Z,7.70
2022-10-31T21:02:37.555Z,5.78
2022-10-31T21:05:08.329Z,6.20
2022-10-31T21:07:37.108Z,6.85
2022-10-31T21:10:14.708Z,6.05
2022-10-31T21:12:47.454Z,6.45
2022-10-31T21:15:16.040Z,7.20
2022-10-31T21:17:44.414Z,7.20
2022-10-31T21:20:12.780Z,5.93
2022-10-31T21:22:41.493Z,6.10
2022-10-31T21:25:10.060Z,6.38
2022-10-31T21:27:38.332Z,6.68
2022-10-31T21:30:08.628Z,6.40
2022-10-31T21:32:37.045Z,5.68
2022-10-31T21:35:05.646Z,6.93
2022-10-31T21:37:34.064Z,6.63
2022-10-31T21:40:02.487Z,6.32
2022-10-31T21:42:30.926Z,6.30
2022-10-31T21:44:59.173Z,6.65
2022-10-31T21:47:28.824Z,6.57
2022-10-31T21:49:57.122Z,6.75
2022-10-31T21:52:25.523Z,6.38
2022-10-31T21:54:53.028Z,7.10
2022-10-31T21:59:50.300Z,6.07
2022-10-31T22:02:18.571Z,6.80
2022-10-31T22:04:50.227Z,5.22
2022-10-31T22:07:18.707Z,5.18
2022-10-31T22:09:47.355Z,5.63
2022-10-31T22:12:15.827Z,5.50
2022-10-31T22:14:44.319Z,5.45
2022-10-31T22:17:12.539Z,5.53
2022-10-31T22:19:40.842Z,6.03
2022-10-31T22:22:11.907Z,5.35
2022-10-31T22:24:40.088Z,5.43
2022-10-31T22:27:08.381Z,3.72
2022-10-31T22:29:37.643Z,5.85
2022-10-31T22:32:06.068Z,4.72
2022-10-31T22:34:34.263Z,4.95
2022-10-31T22:37:03.072Z,5.55
2022-10-31T22:39:32.662Z,6.15
2022-10-31T22:42:00.935Z,5.22
2022-10-31T22:44:29.539Z,5.70
2022-10-31T22:46:57.877Z,4.90
2022-10-31T22:49:26.301Z,5.65
2022-10-31T22:51:55.438Z,5.82
2022-10-31T22:54:23.861Z,5.45
2022-10-31T22:56:53.277Z,5.07
2022-10-31T22:59:21.490Z,5.72
2022-10-31T23:01:50.050Z,5.78
2022-10-31T23:04:18.216Z,5.22
2022-10-31T23:06:46.777Z,5.20
2022-10-31T23:09:16.214Z,4.68
2022-10-31T23:11:45.062Z,4.78
2022-10-31T23:14:19.475Z,5.85
2022-10-31T23:16:49.147Z,3.78
2022-10-31T23:19:19.239Z,4.25
2022-10-31T23:21:59.917Z,4.95
2022-10-31T23:24:33.259Z,4.63
2022-10-31T23:27:10.491Z,5.45
2022-10-31T23:29:47.939Z,5.38
2022-10-31T23:32:19.748Z,5.55
2022-10-31T23:34:49.589Z,5.32
2022-10-31T23:37:18.822Z,4.35
2022-10-31T23:39:47.179Z,5.82
2022-10-31T23:42:16.578Z,5.50
2022-10-31T23:44:46.243Z,4.90
2022-10-31T23:47:14.868Z,4.78
2022-10-31T23:49:43.329Z,4.95
2022-10-31T23:52:12.058Z,5.45
2022-10-31T23:54:40.348Z,5.15
2022-10-31T23:57:08.683Z,5.50
2022-10-31T23:59:37.517Z,4.90
